sensor_id;sensor_type;location;lat;lon;timestamp;P1;durP1;ratioP1;P2;durP2;ratioP2
24034;SDS011;12242;50.952;4.678;2023-05-07T00:00:38;8.20;;;2.75;;
24034;SDS011;12242;50.952;4.678;2023-05-07T00:03:07;5.20;;;2.33;;
24034;SDS011;12242;50.952;4.678;2023-05-07T00:05:34;8.23;;;2.88;;
24034;SDS011;12242;50.952;4.678;2023-05-07T00:08:03;6.97;;;2.55;;
24034;SDS011;12242;50.952;4.678;2023-05-07T00:10:30;8.68;;;3.15;;
24034;SDS011;12242;50.952;4.678;2023-05-07T00:12:58;6.28;;;2.75;;
24034;SDS011;12242;50.952;4.678;2023-05-07T00:15:26;7.18;;;2.95;;
24034;SDS011;12242;50.952;4.678;2023-05-07T00:17:55;9.60;;;2.67;;
24034;SDS011;12242;50.952;4.678;2023-05-07T00:20:23;5.80;;;2.92;;
24034;SDS011;12242;50.952;4.678;2023-05-07T00:22:51;6.75;;;3.05;;
24034;SDS011;12242;50.952;4.678;2023-05-07T00:25:19;7.35;;;2.90;;
24034;SDS011;12242;50.952;4.678;2023-05-07T00:27:47;5.85;;;2.90;;
24034;SDS011;12242;50.952;4.678;2023-05-07T00:30:14;5.68;;;2.72;;
24034;SDS011;12242;50.952;4.678;2023-05-07T00:32:42;6.50;;;3.38;;
24034;SDS011;12242;50.952;4.678;2023-05-07T00:35:12;7.15;;;3.20;;
24034;SDS011;12242;50.952;4.678;2023-05-07T00:37:40;4.60;;;2.20;;
24034;SDS011;12242;50.952;4.678;2023-05-07T00:40:07;8.30;;;3.60;;
24034;SDS011;12242;50.952;4.678;2023-05-07T00:42:36;7.20;;;3.25;;
24034;SDS011;12242;50.952;4.678;2023-05-07T00:45:04;10.32;;;3.20;;
24034;SDS011;12242;50.952;4.678;2023-05-07T00:47:32;7.38;;;3.40;;
24034;SDS011;12242;50.952;4.678;2023-05-07T00:49:59;9.68;;;3.65;;
24034;SDS011;12242;50.952;4.678;2023-05-07T00:52:27;11.65;;;3.28;;
24034;SDS011;12242;50.952;4.678;2023-05-07T00:54:56;5.93;;;2.83;;
24034;SDS011;12242;50.952;4.678;2023-05-07T00:57:24;8.60;;;3.40;;
24034;SDS011;12242;50.952;4.678;2023-05-07T00:59:52;6.32;;;3.10;;
24034;SDS011;12242;50.952;4.678;2023-05-07T01:02:19;7.47;;;3.17;;
24034;SDS011;12242;50.952;4.678;2023-05-07T01:04:47;8.25;;;3.30;;
24034;SDS011;12242;50.952;4.678;2023-05-07T01:07:15;7.40;;;3.20;;
24034;SDS011;12242;50.952;4.678;2023-05-07T01:09:42;8.45;;;3.55;;
24034;SDS011;12242;50.952;4.678;2023-05-07T01:12:10;8.88;;;4.25;;
24034;SDS011;12242;50.952;4.678;2023-05-07T01:14:38;8.48;;;3.90;;
24034;SDS011;12242;50.952;4.678;2023-05-07T01:17:06;6.47;;;3.42;;
24034;SDS011;12242;50.952;4.678;2023-05-07T01:19:35;8.68;;;4.22;;
24034;SDS011;12242;50.952;4.678;2023-05-07T01:22:04;6.55;;;4.05;;
24034;SDS011;12242;50.952;4.678;2023-05-07T01:24:36;6.97;;;3.90;;
24034;SDS011;12242;50.952;4.678;2023-05-07T01:27:04;8.65;;;3.88;;
24034;SDS011;12242;50.952;4.678;2023-05-07T01:29:32;7.90;;;3.63;;
24034;SDS011;12242;50.952;4.678;2023-05-07T01:32:00;6.53;;;3.70;;
24034;SDS011;12242;50.952;4.678;2023-05-07T01:34:30;6.57;;;3.38;;
24034;SDS011;12242;50.952;4.678;2023-05-07T01:37:01;6.10;;;3.10;;
24034;SDS011;12242;50.952;4.678;2023-05-07T01:39:29;8.65;;;3.88;;
24034;SDS011;12242;50.952;4.678;2023-05-07T01:41:57;8.90;;;3.67;;
24034;SDS011;12242;50.952;4.678;2023-05-07T01:44:26;5.53;;;3.53;;
24034;SDS011;12242;50.952;4.678;2023-05-07T01:46:54;8.93;;;3.70;;
24034;SDS011;12242;50.952;4.678;2023-05-07T01:49:22;6.50;;;3.83;;
24034;SDS011;12242;50.952;4.678;2023-05-07T01:51:50;7.72;;;4.07;;
24034;SDS011;12242;50.952;4.678;2023-05-07T01:54:18;9.85;;;3.90;;
24034;SDS011;12242;50.952;4.678;2023-05-07T01:56:47;9.90;;;4.20;;
24034;SDS011;12242;50.952;4.678;2023-05-07T01:59:15;8.80;;;3.70;;
24034;SDS011;12242;50.952;4.678;2023-05-07T02:01:43;7.60;;;3.90;;
24034;SDS011;12242;50.952;4.678;2023-05-07T02:04:10;8.48;;;4.30;;
24034;SDS011;12242;50.952;4.678;2023-05-07T02:06:38;6.97;;;3.42;;
24034;SDS011;12242;50.952;4.678;2023-05-07T02:09:06;9.20;;;3.65;;
24034;SDS011;12242;50.952;4.678;2023-05-07T02:11:35;7.60;;;3.67;;
24034;SDS011;12242;50.952;4.678;2023-05-07T02:14:03;8.63;;;4.10;;
24034;SDS011;12242;50.952;4.678;2023-05-07T02:16:30;8.27;;;3.92;;
24034;SDS011;12242;50.952;4.678;2023-05-07T02:18:58;10.82;;;4.05;;
24034;SDS011;12242;50.952;4.678;2023-05-07T02:21:25;11.32;;;4.65;;
24034;SDS011;12242;50.952;4.678;2023-05-07T02:23:56;9.65;;;5.07;;
24034;SDS011;12242;50.952;4.678;2023-05-07T02:26:23;11.10;;;5.40;;
24034;SDS011;12242;50.952;4.678;2023-05-07T02:28:52;12.27;;;5.63;;
24034;SDS011;12242;50.952;4.678;2023-05-07T02:31:20;10.63;;;5.40;;
24034;SDS011;12242;50.952;4.678;2023-05-07T02:33:48;9.20;;;5.28;;
24034;SDS011;12242;50.952;4.678;2023-05-07T02:36:16;10.63;;;5.72;;
24034;SDS011;12242;50.952;4.678;2023-05-07T02:38:43;8.07;;;4.78;;
24034;SDS011;12242;50.952;4.678;2023-05-07T02:41:11;9.90;;;4.85;;
24034;SDS011;12242;50.952;4.678;2023-05-07T02:43:39;10.60;;;5.03;;
24034;SDS011;12242;50.952;4.678;2023-05-07T02:46:07;10.57;;;5.28;;
24034;SDS011;12242;50.952;4.678;2023-05-07T02:48:35;11.85;;;4.68;;
24034;SDS011;12242;50.952;4.678;2023-05-07T02:51:03;11.82;;;5.60;;
24034;SDS011;12242;50.952;4.678;2023-05-07T02:53:32;10.85;;;5.40;;
24034;SDS011;12242;50.952;4.678;2023-05-07T02:56:00;11.40;;;5.65;;
24034;SDS011;12242;50.952;4.678;2023-05-07T02:58:28;11.85;;;5.40;;
24034;SDS011;12242;50.952;4.678;2023-05-07T03:00:56;12.13;;;6.20;;
24034;SDS011;12242;50.952;4.678;2023-05-07T03:03:24;9.00;;;5.20;;
24034;SDS011;12242;50.952;4.678;2023-05-07T03:05:51;10.82;;;5.03;;
24034;SDS011;12242;50.952;4.678;2023-05-07T03:08:19;14.07;;;5.30;;
24034;SDS011;12242;50.952;4.678;2023-05-07T03:10:46;9.40;;;4.80;;
24034;SDS011;12242;50.952;4.678;2023-05-07T03:13:14;9.80;;;4.53;;
24034;SDS011;12242;50.952;4.678;2023-05-07T03:15:42;11.05;;;4.68;;
24034;SDS011;12242;50.952;4.678;2023-05-07T03:18:09;11.40;;;5.05;;
24034;SDS011;12242;50.952;4.678;2023-05-07T03:20:37;8.85;;;4.72;;
24034;SDS011;12242;50.952;4.678;2023-05-07T03:23:05;9.73;;;4.85;;
24034;SDS011;12242;50.952;4.678;2023-05-07T03:25:32;7.60;;;4.22;;
24034;SDS011;12242;50.952;4.678;2023-05-07T03:28:00;10.10;;;4.68;;
24034;SDS011;12242;50.952;4.678;2023-05-07T03:30:28;12.88;;;4.78;;
24034;SDS011;12242;50.952;4.678;2023-05-07T03:32:55;7.80;;;4.13;;
24034;SDS011;12242;50.952;4.678;2023-05-07T03:35:23;8.95;;;4.28;;
24034;SDS011;12242;50.952;4.678;2023-05-07T03:37:51;10.27;;;4.43;;
24034;SDS011;12242;50.952;4.678;2023-05-07T03:40:18;11.73;;;5.00;;
24034;SDS011;12242;50.952;4.678;2023-05-07T03:42:46;10.60;;;4.38;;
24034;SDS011;12242;50.952;4.678;2023-05-07T03:45:14;8.05;;;4.18;;
24034;SDS011;12242;50.952;4.678;2023-05-07T03:47:42;8.52;;;4.45;;
24034;SDS011;12242;50.952;4.678;2023-05-07T03:50:09;8.20;;;4.03;;
24034;SDS011;12242;50.952;4.678;2023-05-07T03:52:37;8.30;;;4.05;;
24034;SDS011;12242;50.952;4.678;2023-05-07T03:55:05;8.02;;;4.47;;
24034;SDS011;12242;50.952;4.678;2023-05-07T03:57:34;7.03;;;3.90;;
24034;SDS011;12242;50.952;4.678;2023-05-07T04:00:02;8.80;;;4.32;;
24034;SDS011;12242;50.952;4.678;2023-05-07T04:02:31;7.63;;;4.07;;
24034;SDS011;12242;50.952;4.678;2023-05-07T04:05:00;8.68;;;4.50;;
24034;SDS011;12242;50.952;4.678;2023-05-07T04:07:28;8.23;;;4.45;;
24034;SDS011;12242;50.952;4.678;2023-05-07T04:09:55;10.65;;;4.82;;
24034;SDS011;12242;50.952;4.678;2023-05-07T04:12:23;8.30;;;4.45;;
24034;SDS011;12242;50.952;4.678;2023-05-07T04:14:50;9.40;;;4.80;;
24034;SDS011;12242;50.952;4.678;2023-05-07T04:17:18;9.43;;;5.20;;
24034;SDS011;12242;50.952;4.678;2023-05-07T04:19:45;10.55;;;5.30;;
24034;SDS011;12242;50.952;4.678;2023-05-07T04:22:13;11.38;;;5.13;;
24034;SDS011;12242;50.952;4.678;2023-05-07T04:24:41;9.43;;;4.43;;
24034;SDS011;12242;50.952;4.678;2023-05-07T04:27:08;10.05;;;5.45;;
24034;SDS011;12242;50.952;4.678;2023-05-07T04:29:36;9.63;;;4.65;;
24034;SDS011;12242;50.952;4.678;2023-05-07T04:32:04;9.75;;;4.75;;
24034;SDS011;12242;50.952;4.678;2023-05-07T04:34:31;7.85;;;4.57;;
24034;SDS011;12242;50.952;4.678;2023-05-07T04:36:59;7.45;;;4.28;;
24034;SDS011;12242;50.952;4.678;2023-05-07T04:39:27;9.60;;;5.00;;
24034;SDS011;12242;50.952;4.678;2023-05-07T04:41:55;8.35;;;4.50;;
24034;SDS011;12242;50.952;4.678;2023-05-07T04:44:22;8.30;;;4.82;;
24034;SDS011;12242;50.952;4.678;2023-05-07T04:46:50;8.85;;;4.38;;
24034;SDS011;12242;50.952;4.678;2023-05-07T04:49:17;11.15;;;5.03;;
24034;SDS011;12242;50.952;4.678;2023-05-07T04:51:45;8.07;;;4.38;;
24034;SDS011;12242;50.952;4.678;2023-05-07T04:54:12;11.25;;;4.97;;
24034;SDS011;12242;50.952;4.678;2023-05-07T04:56:40;9.95;;;4.53;;
24034;SDS011;12242;50.952;4.678;2023-05-07T04:59:08;7.25;;;4.03;;
24034;SDS011;12242;50.952;4.678;2023-05-07T05:01:35;8.52;;;4.28;;
24034;SDS011;12242;50.952;4.678;2023-05-07T05:04:03;7.95;;;4.03;;
24034;SDS011;12242;50.952;4.678;2023-05-07T05:06:31;8.20;;;4.47;;
24034;SDS011;12242;50.952;4.678;2023-05-07T05:08:59;10.00;;;5.28;;
24034;SDS011;12242;50.952;4.678;2023-05-07T05:11:26;8.52;;;4.70;;
24034;SDS011;12242;50.952;4.678;2023-05-07T05:13:54;11.02;;;5.45;;
24034;SDS011;12242;50.952;4.678;2023-05-07T05:16:21;9.95;;;5.90;;
24034;SDS011;12242;50.952;4.678;2023-05-07T05:18:49;8.20;;;4.45;;
24034;SDS011;12242;50.952;4.678;2023-05-07T05:21:18;11.63;;;5.72;;
24034;SDS011;12242;50.952;4.678;2023-05-07T05:23:46;10.43;;;5.72;;
24034;SDS011;12242;50.952;4.678;2023-05-07T05:26:14;8.90;;;5.00;;
24034;SDS011;12242;50.952;4.678;2023-05-07T05:28:41;9.32;;;5.20;;
24034;SDS011;12242;50.952;4.678;2023-05-07T05:31:09;8.25;;;5.22;;
24034;SDS011;12242;50.952;4.678;2023-05-07T05:33:37;9.43;;;5.18;;
24034;SDS011;12242;50.952;4.678;2023-05-07T05:36:05;9.82;;;5.45;;
24034;SDS011;12242;50.952;4.678;2023-05-07T05:38:33;11.40;;;5.68;;
24034;SDS011;12242;50.952;4.678;2023-05-07T05:41:01;13.02;;;5.63;;
24034;SDS011;12242;50.952;4.678;2023-05-07T05:43:28;11.90;;;5.88;;
24034;SDS011;12242;50.952;4.678;2023-05-07T05:45:56;9.50;;;5.57;;
24034;SDS011;12242;50.952;4.678;2023-05-07T05:48:24;11.35;;;5.30;;
24034;SDS011;12242;50.952;4.678;2023-05-07T05:50:52;8.88;;;5.43;;
24034;SDS011;12242;50.952;4.678;2023-05-07T05:53:20;10.07;;;5.07;;
24034;SDS011;12242;50.952;4.678;2023-05-07T05:55:47;11.52;;;5.75;;
24034;SDS011;12242;50.952;4.678;2023-05-07T05:58:16;9.60;;;5.50;;
24034;SDS011;12242;50.952;4.678;2023-05-07T06:00:46;9.52;;;5.15;;
24034;SDS011;12242;50.952;4.678;2023-05-07T06:03:15;9.50;;;5.05;;
24034;SDS011;12242;50.952;4.678;2023-05-07T06:05:43;10.40;;;5.63;;
24034;SDS011;12242;50.952;4.678;2023-05-07T06:08:12;12.02;;;5.60;;
24034;SDS011;12242;50.952;4.678;2023-05-07T06:10:40;9.45;;;5.75;;
24034;SDS011;12242;50.952;4.678;2023-05-07T06:13:08;9.90;;;5.82;;
24034;SDS011;12242;50.952;4.678;2023-05-07T06:15:36;13.38;;;6.78;;
24034;SDS011;12242;50.952;4.678;2023-05-07T06:18:03;14.27;;;6.80;;
24034;SDS011;12242;50.952;4.678;2023-05-07T06:20:31;11.60;;;6.03;;
24034;SDS011;12242;50.952;4.678;2023-05-07T06:22:59;12.63;;;6.25;;
24034;SDS011;12242;50.952;4.678;2023-05-07T06:25:26;12.35;;;6.28;;
24034;SDS011;12242;50.952;4.678;2023-05-07T06:27:54;12.00;;;6.30;;
24034;SDS011;12242;50.952;4.678;2023-05-07T06:30:22;10.88;;;6.38;;
24034;SDS011;12242;50.952;4.678;2023-05-07T06:32:49;11.00;;;6.20;;
24034;SDS011;12242;50.952;4.678;2023-05-07T06:35:17;13.32;;;6.55;;
24034;SDS011;12242;50.952;4.678;2023-05-07T06:37:44;12.98;;;7.07;;
24034;SDS011;12242;50.952;4.678;2023-05-07T06:40:12;11.05;;;6.32;;
24034;SDS011;12242;50.952;4.678;2023-05-07T06:42:40;12.65;;;6.53;;
24034;SDS011;12242;50.952;4.678;2023-05-07T06:45:07;13.40;;;6.07;;
24034;SDS011;12242;50.952;4.678;2023-05-07T06:47:35;13.43;;;6.47;;
24034;SDS011;12242;50.952;4.678;2023-05-07T06:50:03;10.98;;;6.22;;
24034;SDS011;12242;50.952;4.678;2023-05-07T06:52:30;13.40;;;6.70;;
24034;SDS011;12242;50.952;4.678;2023-05-07T06:54:59;11.07;;;6.05;;
24034;SDS011;12242;50.952;4.678;2023-05-07T06:57:27;9.98;;;5.63;;
24034;SDS011;12242;50.952;4.678;2023-05-07T06:59:54;10.00;;;5.55;;
24034;SDS011;12242;50.952;4.678;2023-05-07T07:02:22;12.73;;;6.60;;
24034;SDS011;12242;50.952;4.678;2023-05-07T07:04:49;14.60;;;6.22;;
24034;SDS011;12242;50.952;4.678;2023-05-07T07:07:17;9.88;;;5.68;;
24034;SDS011;12242;50.952;4.678;2023-05-07T07:09:44;12.27;;;5.70;;
24034;SDS011;12242;50.952;4.678;2023-05-07T07:12:12;13.27;;;5.75;;
24034;SDS011;12242;50.952;4.678;2023-05-07T07:14:39;11.68;;;5.00;;
24034;SDS011;12242;50.952;4.678;2023-05-07T07:17:07;10.48;;;4.65;;
24034;SDS011;12242;50.952;4.678;2023-05-07T07:19:35;11.68;;;4.82;;
24034;SDS011;12242;50.952;4.678;2023-05-07T07:22:02;10.07;;;4.60;;
24034;SDS011;12242;50.952;4.678;2023-05-07T07:24:30;11.60;;;5.00;;
24034;SDS011;12242;50.952;4.678;2023-05-07T07:26:57;8.25;;;4.53;;
24034;SDS011;12242;50.952;4.678;2023-05-07T07:29:25;7.60;;;3.80;;
24034;SDS011;12242;50.952;4.678;2023-05-07T07:31:53;7.38;;;3.60;;
24034;SDS011;12242;50.952;4.678;2023-05-07T07:34:21;7.47;;;3.80;;
24034;SDS011;12242;50.952;4.678;2023-05-07T07:36:48;13.15;;;3.70;;
24034;SDS011;12242;50.952;4.678;2023-05-07T07:39:16;9.45;;;3.50;;
24034;SDS011;12242;50.952;4.678;2023-05-07T07:41:43;7.22;;;3.05;;
24034;SDS011;12242;50.952;4.678;2023-05-07T07:44:11;8.30;;;3.15;;
24034;SDS011;12242;50.952;4.678;2023-05-07T07:46:42;11.73;;;3.13;;
24034;SDS011;12242;50.952;4.678;2023-05-07T07:49:09;14.32;;;3.00;;
24034;SDS011;12242;50.952;4.678;2023-05-07T07:51:37;11.70;;;3.30;;
24034;SDS011;12242;50.952;4.678;2023-05-07T07:54:04;8.73;;;3.17;;
24034;SDS011;12242;50.952;4.678;2023-05-07T07:56:32;6.72;;;2.45;;
24034;SDS011;12242;50.952;4.678;2023-05-07T07:59:03;6.57;;;2.90;;
24034;SDS011;12242;50.952;4.678;2023-05-07T08:01:30;8.75;;;2.80;;
24034;SDS011;12242;50.952;4.678;2023-05-07T08:03:58;7.32;;;2.70;;
24034;SDS011;12242;50.952;4.678;2023-05-07T08:06:26;5.35;;;2.15;;
24034;SDS011;12242;50.952;4.678;2023-05-07T08:08:54;6.40;;;2.10;;
24034;SDS011;12242;50.952;4.678;2023-05-07T08:11:22;6.32;;;2.45;;
24034;SDS011;12242;50.952;4.678;2023-05-07T08:13:49;5.05;;;2.15;;
24034;SDS011;12242;50.952;4.678;2023-05-07T08:16:17;4.68;;;2.13;;
24034;SDS011;12242;50.952;4.678;2023-05-07T08:18:46;5.47;;;2.03;;
24034;SDS011;12242;50.952;4.678;2023-05-07T08:21:14;8.18;;;2.40;;
24034;SDS011;12242;50.952;4.678;2023-05-07T08:23:41;6.60;;;1.88;;
24034;SDS011;12242;50.952;4.678;2023-05-07T08:26:09;7.05;;;2.47;;
24034;SDS011;12242;50.952;4.678;2023-05-07T08:28:36;10.20;;;2.78;;
24034;SDS011;12242;50.952;4.678;2023-05-07T08:31:04;7.10;;;2.72;;
24034;SDS011;12242;50.952;4.678;2023-05-07T08:33:32;7.30;;;2.60;;
24034;SDS011;12242;50.952;4.678;2023-05-07T08:35:59;8.68;;;2.70;;
24034;SDS011;12242;50.952;4.678;2023-05-07T08:38:26;9.85;;;3.17;;
24034;SDS011;12242;50.952;4.678;2023-05-07T08:40:54;5.18;;;2.58;;
24034;SDS011;12242;50.952;4.678;2023-05-07T08:43:22;8.48;;;2.53;;
24034;SDS011;12242;50.952;4.678;2023-05-07T08:45:54;8.63;;;2.42;;
24034;SDS011;12242;50.952;4.678;2023-05-07T08:48:24;6.25;;;2.20;;
24034;SDS011;12242;50.952;4.678;2023-05-07T08:50:54;7.15;;;2.45;;
24034;SDS011;12242;50.952;4.678;2023-05-07T08:53:21;7.70;;;2.58;;
24034;SDS011;12242;50.952;4.678;2023-05-07T08:55:49;7.13;;;2.30;;
24034;SDS011;12242;50.952;4.678;2023-05-07T08:58:17;8.88;;;2.70;;
24034;SDS011;12242;50.952;4.678;2023-05-07T09:00:44;7.75;;;2.35;;
24034;SDS011;12242;50.952;4.678;2023-05-07T09:03:13;4.47;;;2.03;;
24034;SDS011;12242;50.952;4.678;2023-05-07T09:05:41;6.35;;;2.25;;
24034;SDS011;12242;50.952;4.678;2023-05-07T09:08:13;6.40;;;2.50;;
24034;SDS011;12242;50.952;4.678;2023-05-07T09:10:42;5.50;;;2.08;;
24034;SDS011;12242;50.952;4.678;2023-05-07T09:13:11;5.68;;;1.98;;
24034;SDS011;12242;50.952;4.678;2023-05-07T09:15:41;4.90;;;1.70;;
24034;SDS011;12242;50.952;4.678;2023-05-07T09:18:09;4.43;;;1.88;;
24034;SDS011;12242;50.952;4.678;2023-05-07T09:20:36;4.88;;;2.20;;
24034;SDS011;12242;50.952;4.678;2023-05-07T09:23:07;6.63;;;2.55;;
24034;SDS011;12242;50.952;4.678;2023-05-07T09:25:36;5.28;;;2.15;;
24034;SDS011;12242;50.952;4.678;2023-05-07T09:28:04;6.55;;;2.38;;
24034;SDS011;12242;50.952;4.678;2023-05-07T09:30:36;5.40;;;2.13;;
24034;SDS011;12242;50.952;4.678;2023-05-07T09:33:04;5.43;;;1.98;;
24034;SDS011;12242;50.952;4.678;2023-05-07T09:35:32;6.03;;;2.45;;
24034;SDS011;12242;50.952;4.678;2023-05-07T09:38:00;9.45;;;2.50;;
24034;SDS011;12242;50.952;4.678;2023-05-07T09:40:30;6.35;;;2.25;;
24034;SDS011;12242;50.952;4.678;2023-05-07T09:43:08;7.72;;;3.00;;
24034;SDS011;12242;50.952;4.678;2023-05-07T09:45:38;6.75;;;2.50;;
24034;SDS011;12242;50.952;4.678;2023-05-07T09:48:06;9.80;;;2.75;;
24034;SDS011;12242;50.952;4.678;2023-05-07T09:50:39;7.22;;;2.85;;
24034;SDS011;12242;50.952;4.678;2023-05-07T09:53:17;8.77;;;2.83;;
24034;SDS011;12242;50.952;4.678;2023-05-07T09:55:44;8.98;;;2.30;;
24034;SDS011;12242;50.952;4.678;2023-05-07T09:58:12;6.10;;;2.53;;
24034;SDS011;12242;50.952;4.678;2023-05-07T10:00:43;8.70;;;2.75;;
24034;SDS011;12242;50.952;4.678;2023-05-07T10:03:11;5.75;;;2.58;;
24034;SDS011;12242;50.952;4.678;2023-05-07T10:05:39;6.00;;;2.15;;
24034;SDS011;12242;50.952;4.678;2023-05-07T10:08:09;4.57;;;1.92;;
24034;SDS011;12242;50.952;4.678;2023-05-07T10:10:37;5.30;;;2.15;;
24034;SDS011;12242;50.952;4.678;2023-05-07T10:13:05;4.03;;;2.20;;
24034;SDS011;12242;50.952;4.678;2023-05-07T10:15:37;5.70;;;1.80;;
24034;SDS011;12242;50.952;4.678;2023-05-07T10:18:04;5.32;;;1.67;;
24034;SDS011;12242;50.952;4.678;2023-05-07T10:20:33;6.53;;;2.15;;
24034;SDS011;12242;50.952;4.678;2023-05-07T10:23:04;4.85;;;2.20;;
24034;SDS011;12242;50.952;4.678;2023-05-07T10:25:32;4.82;;;1.88;;
24034;SDS011;12242;50.952;4.678;2023-05-07T10:28:02;5.35;;;1.90;;
24034;SDS011;12242;50.952;4.678;2023-05-07T10:33:13;6.28;;;1.80;;
24034;SDS011;12242;50.952;4.678;2023-05-07T10:35:44;5.45;;;1.67;;
24034;SDS011;12242;50.952;4.678;2023-05-07T10:38:13;3.65;;;1.42;;
24034;SDS011;12242;50.952;4.678;2023-05-07T10:40:43;2.53;;;1.17;;
24034;SDS011;12242;50.952;4.678;2023-05-07T10:43:14;5.20;;;1.55;;
24034;SDS011;12242;50.952;4.678;2023-05-07T10:45:41;3.80;;;1.40;;
24034;SDS011;12242;50.952;4.678;2023-05-07T10:48:10;4.05;;;1.60;;
24034;SDS011;12242;50.952;4.678;2023-05-07T10:50:41;5.25;;;1.52;;
24034;SDS011;12242;50.952;4.678;2023-05-07T10:55:50;4.30;;;1.75;;
24034;SDS011;12242;50.952;4.678;2023-05-07T10:58:26;6.35;;;1.73;;
24034;SDS011;12242;50.952;4.678;2023-05-07T11:00:59;5.05;;;1.80;;
24034;SDS011;12242;50.952;4.678;2023-05-07T11:03:28;9.57;;;2.50;;
24034;SDS011;12242;50.952;4.678;2023-05-07T11:06:12;6.80;;;2.00;;
24034;SDS011;12242;50.952;4.678;2023-05-07T11:14:14;3.60;;;1.25;;
24034;SDS011;12242;50.952;4.678;2023-05-07T11:17:04;5.88;;;1.60;;
24034;SDS011;12242;50.952;4.678;2023-05-07T11:19:50;6.22;;;1.38;;
24034;SDS011;12242;50.952;4.678;2023-05-07T11:25:02;3.28;;;1.00;;
24034;SDS011;12242;50.952;4.678;2023-05-07T11:27:30;3.13;;;1.20;;
24034;SDS011;12242;50.952;4.678;2023-05-07T11:29:58;4.00;;;1.20;;
24034;SDS011;12242;50.952;4.678;2023-05-07T11:32:28;3.80;;;1.20;;
24034;SDS011;12242;50.952;4.678;2023-05-07T11:34:58;2.42;;;1.15;;
24034;SDS011;12242;50.952;4.678;2023-05-07T11:37:27;6.15;;;1.48;;
24034;SDS011;12242;50.952;4.678;2023-05-07T11:42:33;5.38;;;1.65;;
24034;SDS011;12242;50.952;4.678;2023-05-07T11:45:02;3.38;;;1.52;;
24034;SDS011;12242;50.952;4.678;2023-05-07T11:47:31;4.97;;;1.35;;
24034;SDS011;12242;50.952;4.678;2023-05-07T11:50:06;4.40;;;1.35;;
24034;SDS011;12242;50.952;4.678;2023-05-07T11:52:35;5.95;;;1.67;;
24034;SDS011;12242;50.952;4.678;2023-05-07T11:55:03;6.43;;;1.88;;
24034;SDS011;12242;50.952;4.678;2023-05-07T11:57:32;3.55;;;1.70;;
24034;SDS011;12242;50.952;4.678;2023-05-07T12:00:01;2.63;;;1.50;;
24034;SDS011;12242;50.952;4.678;2023-05-07T12:02:31;3.95;;;1.45;;
24034;SDS011;12242;50.952;4.678;2023-05-07T12:05:00;6.15;;;1.92;;
24034;SDS011;12242;50.952;4.678;2023-05-07T12:07:27;4.80;;;1.52;;
24034;SDS011;12242;50.952;4.678;2023-05-07T12:09:55;5.28;;;1.50;;
24034;SDS011;12242;50.952;4.678;2023-05-07T12:12:23;5.07;;;1.58;;
24034;SDS011;12242;50.952;4.678;2023-05-07T12:14:50;5.25;;;1.27;;
24034;SDS011;12242;50.952;4.678;2023-05-07T12:17:18;6.80;;;1.48;;
24034;SDS011;12242;50.952;4.678;2023-05-07T12:19:46;4.10;;;1.20;;
24034;SDS011;12242;50.952;4.678;2023-05-07T12:22:14;4.40;;;1.58;;
24034;SDS011;12242;50.952;4.678;2023-05-07T12:25:15;3.50;;;1.50;;
24034;SDS011;12242;50.952;4.678;2023-05-07T12:27:36;4.80;;;1.85;;
24034;SDS011;12242;50.952;4.678;2023-05-07T12:30:06;7.40;;;2.30;;
24034;SDS011;12242;50.952;4.678;2023-05-07T12:32:36;6.15;;;1.70;;
24034;SDS011;12242;50.952;4.678;2023-05-07T12:35:05;3.85;;;1.60;;
24034;SDS011;12242;50.952;4.678;2023-05-07T12:37:33;4.53;;;1.35;;
24034;SDS011;12242;50.952;4.678;2023-05-07T12:40:03;3.50;;;1.38;;
24034;SDS011;12242;50.952;4.678;2023-05-07T12:42:38;2.75;;;1.27;;
24034;SDS011;12242;50.952;4.678;2023-05-07T12:45:10;6.32;;;1.30;;
24034;SDS011;12242;50.952;4.678;2023-05-07T12:47:39;5.45;;;1.35;;
24034;SDS011;12242;50.952;4.678;2023-05-07T12:50:10;2.65;;;1.20;;
24034;SDS011;12242;50.952;4.678;2023-05-07T12:52:38;4.85;;;2.00;;
24034;SDS011;12242;50.952;4.678;2023-05-07T12:55:06;5.47;;;1.30;;
24034;SDS011;12242;50.952;4.678;2023-05-07T12:57:38;6.72;;;1.45;;
24034;SDS011;12242;50.952;4.678;2023-05-07T13:00:07;5.07;;;1.10;;
24034;SDS011;12242;50.952;4.678;2023-05-07T13:02:38;2.45;;;1.10;;
24034;SDS011;12242;50.952;4.678;2023-05-07T13:05:07;3.45;;;0.93;;
24034;SDS011;12242;50.952;4.678;2023-05-07T13:07:36;3.20;;;1.08;;
24034;SDS011;12242;50.952;4.678;2023-05-07T13:10:04;3.78;;;1.33;;
24034;SDS011;12242;50.952;4.678;2023-05-07T13:12:32;2.78;;;0.90;;
24034;SDS011;12242;50.952;4.678;2023-05-07T13:14:59;3.92;;;1.15;;
24034;SDS011;12242;50.952;4.678;2023-05-07T13:17:27;3.88;;;0.98;;
24034;SDS011;12242;50.952;4.678;2023-05-07T13:19:55;4.82;;;1.27;;
24034;SDS011;12242;50.952;4.678;2023-05-07T13:22:22;1.77;;;0.85;;
24034;SDS011;12242;50.952;4.678;2023-05-07T13:24:50;4.15;;;1.25;;
24034;SDS011;12242;50.952;4.678;2023-05-07T13:27:17;2.55;;;1.10;;
24034;SDS011;12242;50.952;4.678;2023-05-07T13:29:46;4.95;;;1.20;;
24034;SDS011;12242;50.952;4.678;2023-05-07T13:32:13;3.72;;;1.10;;
24034;SDS011;12242;50.952;4.678;2023-05-07T13:34:41;3.47;;;1.42;;
24034;SDS011;12242;50.952;4.678;2023-05-07T13:37:09;2.58;;;1.05;;
24034;SDS011;12242;50.952;4.678;2023-05-07T13:39:37;5.55;;;1.20;;
24034;SDS011;12242;50.952;4.678;2023-05-07T13:42:05;2.55;;;1.05;;
24034;SDS011;12242;50.952;4.678;2023-05-07T13:44:32;3.78;;;1.20;;
24034;SDS011;12242;50.952;4.678;2023-05-07T13:47:00;2.90;;;1.02;;
24034;SDS011;12242;50.952;4.678;2023-05-07T13:49:28;2.88;;;1.13;;
24034;SDS011;12242;50.952;4.678;2023-05-07T13:51:56;4.93;;;0.93;;
24034;SDS011;12242;50.952;4.678;2023-05-07T13:54:24;3.85;;;0.98;;
24034;SDS011;12242;50.952;4.678;2023-05-07T13:56:51;5.03;;;0.90;;
24034;SDS011;12242;50.952;4.678;2023-05-07T13:59:19;4.13;;;1.13;;
24034;SDS011;12242;50.952;4.678;2023-05-07T14:01:46;5.30;;;1.20;;
24034;SDS011;12242;50.952;4.678;2023-05-07T14:04:14;3.70;;;1.20;;
24034;SDS011;12242;50.952;4.678;2023-05-07T14:06:42;4.45;;;1.35;;
24034;SDS011;12242;50.952;4.678;2023-05-07T14:09:09;6.82;;;1.30;;
24034;SDS011;12242;50.952;4.678;2023-05-07T14:11:39;5.07;;;1.20;;
24034;SDS011;12242;50.952;4.678;2023-05-07T14:14:06;2.92;;;1.30;;
24034;SDS011;12242;50.952;4.678;2023-05-07T14:16:34;4.53;;;1.77;;
24034;SDS011;12242;50.952;4.678;2023-05-07T14:19:01;3.67;;;1.20;;
24034;SDS011;12242;50.952;4.678;2023-05-07T14:21:29;3.05;;;1.08;;
24034;SDS011;12242;50.952;4.678;2023-05-07T14:23:57;2.42;;;1.15;;
24034;SDS011;12242;50.952;4.678;2023-05-07T14:26:26;5.70;;;1.58;;
24034;SDS011;12242;50.952;4.678;2023-05-07T14:28:54;3.60;;;1.60;;
24034;SDS011;12242;50.952;4.678;2023-05-07T14:31:24;2.90;;;1.48;;
24034;SDS011;12242;50.952;4.678;2023-05-07T14:33:52;3.90;;;1.35;;
24034;SDS011;12242;50.952;4.678;2023-05-07T14:36:20;3.92;;;1.42;;
24034;SDS011;12242;50.952;4.678;2023-05-07T14:38:49;2.55;;;1.10;;
24034;SDS011;12242;50.952;4.678;2023-05-07T14:41:17;4.88;;;1.63;;
24034;SDS011;12242;50.952;4.678;2023-05-07T14:43:44;2.75;;;1.33;;
24034;SDS011;12242;50.952;4.678;2023-05-07T14:46:17;6.82;;;1.45;;
24034;SDS011;12242;50.952;4.678;2023-05-07T14:48:45;7.10;;;1.88;;
24034;SDS011;12242;50.952;4.678;2023-05-07T14:51:13;5.13;;;1.85;;
24034;SDS011;12242;50.952;4.678;2023-05-07T14:53:41;3.83;;;1.65;;
24034;SDS011;12242;50.952;4.678;2023-05-07T14:56:08;3.13;;;1.60;;
24034;SDS011;12242;50.952;4.678;2023-05-07T14:58:36;3.10;;;1.45;;
24034;SDS011;12242;50.952;4.678;2023-05-07T15:01:04;3.72;;;1.42;;
24034;SDS011;12242;50.952;4.678;2023-05-07T15:03:32;3.42;;;1.20;;
24034;SDS011;12242;50.952;4.678;2023-05-07T15:06:00;3.15;;;1.60;;
24034;SDS011;12242;50.952;4.678;2023-05-07T15:08:29;4.88;;;1.42;;